KSYI/SYI METAR and TAF weather

Enter ICAO airport designator
Station Type Date Time Source
KSYI METAR 2019/04/19 10:15 UTC NOAA

KSYI 191015Z AUTO 00000KT 10SM OVC011 15/15 A2947 RMK A01


Station Type Date Time Source
KSYI Decoded METAR 2019/04/19 10:15 UTC NOAA

Station name not available
Apr 19, 2019 - 06:15 AM EDT / 2019.04.19 1015 UTC
Wind: Calm:0
Visibility: 10 mile(s):0
Sky conditions: overcast
Temperature: 59 F (15 C)
Dew Point: 59 F (15 C)
Relative Humidity: 100%
Pressure (altimeter): 29.47 in. Hg (997 hPa)
ob: KSYI 191015Z AUTO 00000KT 10SM OVC011 15/15 A2947 RMK A01
cycle: 10

Station Type Date Time Source
KSYI TAF UTC NOAA

Error!

Example: see airport list